createdAt,value
2019-04-14T00:01:41.255Z,9.02
2019-04-14T00:04:29.044Z,9.75
2019-04-14T00:06:57.621Z,8.48
2019-04-14T00:09:27.323Z,9.05
2019-04-14T00:11:56.948Z,8.99
2019-04-14T00:14:27.117Z,8.68
2019-04-14T00:16:57.408Z,9.39
2019-04-14T00:19:26.215Z,8.91
2019-04-14T00:21:55.149Z,7.49
2019-04-14T00:24:24.932Z,8.97
2019-04-14T00:26:53.778Z,8.29
2019-04-14T00:29:22.393Z,8.48
2019-04-14T00:31:53.717Z,9.01
2019-04-14T00:34:46.653Z,8.46
2019-04-14T00:37:28.032Z,8.13
2019-04-14T00:40:00.370Z,8.73
2019-04-14T00:42:37.124Z,8.22
2019-04-14T00:45:11.675Z,8.02
2019-04-14T00:47:54.778Z,8.43
2019-04-14T00:50:14.734Z,8.87
2019-04-14T00:52:43.708Z,8.55
2019-04-14T00:55:12.452Z,8.50
2019-04-14T00:57:41.972Z,8.64
2019-04-14T01:00:11.047Z,9.16
2019-04-14T01:02:40.699Z,8.87
2019-04-14T01:05:09.504Z,8.32
2019-04-14T01:07:39.126Z,8.46
2019-04-14T01:10:08.195Z,8.45
2019-04-14T01:12:37.093Z,6.53
2019-04-14T01:15:07.187Z,8.10
2019-04-14T01:17:37.133Z,8.40
2019-04-14T01:20:07.824Z,7.98
2019-04-14T01:22:36.522Z,7.77
2019-04-14T01:25:06.460Z,8.52
2019-04-14T01:27:36.329Z,8.55
2019-04-14T01:30:06.636Z,8.36
2019-04-14T01:32:35.525Z,7.82
2019-04-14T01:35:05.357Z,9.08
2019-04-14T01:37:35.378Z,7.92
2019-04-14T01:40:05.214Z,8.17
2019-04-14T01:42:33.902Z,7.84
2019-04-14T01:45:03.609Z,8.42
2019-04-14T01:47:33.414Z,8.77
2019-04-14T01:50:02.357Z,8.71
2019-04-14T01:52:45.891Z,8.07
2019-04-14T01:55:37.347Z,8.38
2019-04-14T01:58:18.651Z,8.63
2019-04-14T02:00:51.374Z,8.01
2019-04-14T02:03:19.993Z,8.77
2019-04-14T02:05:49.613Z,8.47
2019-04-14T02:08:19.574Z,8.31
2019-04-14T02:10:48.339Z,8.60
2019-04-14T02:13:17.933Z,8.70
2019-04-14T02:15:46.724Z,8.48
2019-04-14T02:18:16.377Z,8.55
2019-04-14T02:20:44.980Z,8.67
2019-04-14T02:23:14.715Z,7.69
2019-04-14T02:25:43.403Z,8.81
2019-04-14T02:28:13.327Z,8.65
2019-04-14T02:30:53.631Z,8.53
2019-04-14T02:36:11.986Z,9.15
2019-04-14T02:41:02.969Z,7.67
2019-04-14T02:48:44.238Z,8.08
2019-04-14T02:51:05.795Z,7.31
2019-04-14T02:53:42.013Z,7.13
2019-04-14T02:56:10.009Z,7.65
2019-04-14T03:01:10.128Z,7.56
2019-04-14T03:06:08.676Z,7.52
2019-04-14T03:08:45.863Z,7.10
2019-04-14T03:13:45.577Z,7.69
2019-04-14T03:16:15.278Z,7.62
2019-04-14T03:18:50.600Z,7.54
2019-04-14T03:24:32.097Z,8.12
2019-04-14T03:27:13.460Z,7.88
2019-04-14T03:29:43.380Z,8.16
2019-04-14T03:35:30.219Z,8.23
2019-04-14T03:37:43.198Z,8.38
2019-04-14T03:39:46.262Z,7.81
2019-04-14T03:42:29.680Z,8.00
2019-04-14T03:44:49.243Z,8.09
2019-04-14T03:47:21.765Z,8.23
2019-04-14T03:52:21.867Z,8.65
2019-04-14T03:54:45.517Z,7.84
2019-04-14T03:56:57.693Z,7.56
2019-04-14T03:59:26.448Z,7.86
2019-04-14T04:01:56.446Z,7.39
2019-04-14T04:04:25.411Z,7.63
2019-04-14T04:06:55.221Z,7.95
2019-04-14T04:09:30.089Z,7.61
2019-04-14T04:11:58.649Z,7.82
2019-04-14T04:14:29.098Z,8.24
2019-04-14T04:17:08.391Z,8.18
2019-04-14T04:20:08.948Z,8.39
2019-04-14T04:23:05.835Z,8.88
2019-04-14T04:25:42.261Z,8.86
2019-04-14T04:28:28.370Z,9.00
2019-04-14T04:31:02.451Z,8.90
2019-04-14T04:33:50.089Z,8.37
2019-04-14T04:36:35.730Z,7.75
2019-04-14T04:39:13.030Z,8.51
2019-04-14T04:41:42.805Z,8.30
2019-04-14T04:44:11.754Z,7.79
2019-04-14T04:46:41.528Z,7.63
2019-04-14T04:49:16.531Z,8.60
2019-04-14T04:51:40.540Z,8.46
2019-04-14T04:54:10.294Z,7.92
2019-04-14T04:56:39.168Z,8.52
2019-04-14T04:59:08.170Z,8.49
2019-04-14T05:01:37.051Z,8.76
2019-04-14T05:04:06.783Z,8.17
2019-04-14T05:07:07.867Z,8.82
2019-04-14T05:09:55.605Z,8.15
2019-04-14T05:12:50.200Z,8.55
2019-04-14T05:15:37.923Z,7.73
2019-04-14T05:18:07.237Z,8.02
2019-04-14T05:20:35.897Z,8.28
2019-04-14T05:23:05.807Z,8.09
2019-04-14T05:25:35.049Z,8.25
2019-04-14T05:28:04.813Z,7.95
2019-04-14T05:30:34.919Z,8.13
2019-04-14T05:33:03.555Z,8.15
2019-04-14T05:35:33.321Z,9.00
2019-04-14T05:38:02.285Z,8.60
2019-04-14T05:40:32.053Z,8.30
2019-04-14T05:43:00.988Z,8.04
2019-04-14T05:45:30.645Z,8.11
2019-04-14T05:47:59.261Z,7.48
2019-04-14T05:50:29.158Z,6.93
2019-04-14T05:52:57.986Z,7.07
2019-04-14T05:55:26.539Z,8.14
2019-04-14T05:57:55.189Z,7.84
2019-04-14T06:00:24.068Z,7.65
2019-04-14T06:02:52.754Z,8.77
2019-04-14T06:05:21.517Z,7.69
2019-04-14T06:07:50.424Z,8.40
2019-04-14T06:10:19.166Z,8.23
2019-04-14T06:12:48.011Z,8.69
2019-04-14T06:15:17.067Z,8.99
2019-04-14T06:17:45.771Z,8.46
2019-04-14T06:20:14.868Z,8.36
2019-04-14T06:22:43.650Z,7.73
2019-04-14T06:25:12.527Z,7.44
2019-04-14T06:27:41.500Z,8.78
2019-04-14T06:30:28.868Z,10.50
2019-04-14T06:32:59.805Z,10.24
2019-04-14T06:35:36.956Z,9.56
2019-04-14T06:38:07.986Z,11.18
2019-04-14T06:40:49.559Z,9.95
2019-04-14T06:43:18.201Z,10.44
2019-04-14T06:45:47.430Z,11.52
2019-04-14T06:48:16.217Z,12.68
2019-04-14T06:50:46.459Z,14.12
2019-04-14T06:53:15.247Z,15.04
2019-04-14T06:55:43.978Z,15.39
2019-04-14T06:58:12.693Z,17.33
2019-04-14T07:00:41.354Z,17.56
2019-04-14T07:03:10.047Z,16.03
2019-04-14T07:05:38.705Z,15.88
2019-04-14T07:08:07.390Z,17.36
2019-04-14T07:10:36.085Z,17.97
2019-04-14T07:13:04.825Z,17.63
2019-04-14T07:15:33.458Z,19.29
2019-04-14T07:18:03.097Z,18.69
2019-04-14T07:20:31.821Z,17.34
2019-04-14T07:23:00.497Z,16.90
2019-04-14T07:25:29.125Z,17.85
2019-04-14T07:27:57.925Z,18.55
2019-04-14T07:30:52.867Z,18.58
2019-04-14T07:33:33.676Z,20.15
2019-04-14T07:36:20.963Z,19.99
2019-04-14T07:38:54.200Z,19.12
2019-04-14T07:41:35.475Z,19.84
2019-04-14T07:44:29.239Z,19.53
2019-04-14T07:47:15.667Z,19.02
2019-04-14T07:50:13.782Z,19.90
2019-04-14T07:52:57.356Z,19.81
2019-04-14T07:55:36.779Z,21.52
2019-04-14T07:58:23.186Z,20.17
2019-04-14T08:01:02.486Z,19.51
2019-04-14T08:03:43.905Z,21.20
2019-04-14T08:06:12.563Z,20.62
2019-04-14T08:08:41.306Z,22.00
2019-04-14T08:11:09.956Z,19.88
2019-04-14T08:13:38.963Z,20.88
2019-04-14T08:16:07.649Z,21.58
2019-04-14T08:18:36.269Z,23.42
2019-04-14T08:21:04.983Z,22.86
2019-04-14T08:23:33.582Z,21.69
2019-04-14T08:26:02.283Z,22.94
2019-04-14T08:28:31.138Z,21.55
2019-04-14T08:31:00.012Z,19.65
2019-04-14T08:33:28.632Z,20.55
2019-04-14T08:35:57.269Z,22.68
2019-04-14T08:38:26.139Z,20.53
2019-04-14T08:40:54.783Z,21.11
2019-04-14T08:43:41.379Z,22.27
2019-04-14T08:46:18.903Z,21.08
2019-04-14T08:48:54.959Z,21.89
2019-04-14T08:51:47.476Z,21.85
2019-04-14T08:54:33.987Z,22.60
2019-04-14T08:57:21.671Z,23.26
2019-04-14T09:00:18.246Z,20.37
2019-04-14T09:03:20.931Z,21.35
2019-04-14T09:06:01.055Z,20.68
2019-04-14T09:08:33.734Z,21.96
2019-04-14T09:11:03.988Z,20.31
2019-04-14T09:13:32.817Z,20.40
2019-04-14T09:16:01.498Z,20.08
2019-04-14T09:18:30.296Z,19.88
2019-04-14T09:20:58.913Z,21.24
2019-04-14T09:23:27.665Z,19.98
2019-04-14T09:25:56.348Z,19.09
2019-04-14T09:28:24.978Z,20.81
2019-04-14T09:30:53.637Z,20.23
2019-04-14T09:33:22.301Z,21.08
2019-04-14T09:35:50.970Z,22.38
2019-04-14T09:38:19.644Z,22.02
2019-04-14T09:40:48.670Z,23.09
2019-04-14T09:43:17.293Z,24.73
2019-04-14T09:45:47.182Z,22.42
2019-04-14T09:48:15.945Z,21.60
2019-04-14T09:50:44.564Z,21.94
2019-04-14T09:53:13.287Z,23.43
2019-04-14T09:55:42.220Z,23.07
2019-04-14T09:58:10.869Z,24.46
2019-04-14T10:00:40.771Z,21.20
2019-04-14T10:03:09.653Z,19.75
2019-04-14T10:05:38.321Z,20.44
2019-04-14T10:08:07.344Z,20.58
2019-04-14T10:10:35.989Z,21.98
2019-04-14T10:13:04.696Z,20.34
2019-04-14T10:15:33.851Z,21.24
2019-04-14T10:18:02.548Z,21.33
2019-04-14T10:20:31.145Z,22.11
2019-04-14T10:23:00.071Z,22.77
2019-04-14T10:25:28.733Z,22.45
2019-04-14T10:27:57.405Z,21.46
2019-04-14T10:30:26.309Z,19.66
2019-04-14T10:32:55.213Z,19.54
2019-04-14T10:35:23.903Z,19.85
2019-04-14T10:37:52.526Z,21.09
2019-04-14T10:40:21.361Z,19.91
2019-04-14T10:42:49.970Z,20.01
2019-04-14T10:45:18.871Z,18.68
2019-04-14T10:47:47.508Z,17.95
2019-04-14T10:50:16.218Z,16.81
2019-04-14T10:52:44.872Z,17.62
2019-04-14T10:55:13.571Z,17.65
2019-04-14T10:57:42.165Z,17.88
2019-04-14T11:00:13.852Z,17.20
2019-04-14T11:02:42.472Z,17.59
2019-04-14T11:05:11.329Z,15.74
2019-04-14T11:07:40.184Z,17.97
2019-04-14T11:10:10.011Z,17.08
2019-04-14T11:12:38.699Z,17.54
2019-04-14T11:15:08.080Z,17.70
2019-04-14T11:17:36.744Z,17.06
2019-04-14T11:20:05.893Z,16.43
2019-04-14T11:22:34.745Z,17.90
2019-04-14T11:25:03.543Z,18.96
2019-04-14T11:27:32.240Z,18.53
2019-04-14T11:30:00.873Z,18.85
2019-04-14T11:32:44.699Z,18.23
2019-04-14T11:35:23.453Z,16.00
2019-04-14T11:38:02.656Z,16.41
2019-04-14T11:40:35.417Z,15.43
2019-04-14T11:43:04.056Z,13.86
2019-04-14T11:45:32.690Z,15.60
2019-04-14T11:48:01.409Z,15.60
2019-04-14T11:50:30.069Z,15.77
2019-04-14T11:52:58.985Z,16.63
2019-04-14T11:55:27.644Z,17.35
2019-04-14T11:57:56.302Z,17.04
2019-04-14T12:00:43.906Z,15.97
2019-04-14T12:03:34.540Z,16.68
2019-04-14T12:09:37.985Z,15.97
2019-04-14T12:12:08.621Z,17.41
2019-04-14T12:14:37.329Z,16.74
2019-04-14T12:17:05.961Z,16.56
2019-04-14T12:19:34.892Z,15.00
2019-04-14T12:22:08.384Z,14.52
2019-04-14T12:24:34.057Z,13.64
2019-04-14T12:27:02.965Z,13.78
2019-04-14T12:29:32.561Z,14.20
2019-04-14T12:32:01.799Z,14.20
2019-04-14T12:34:30.403Z,14.13
2019-04-14T12:36:59.277Z,13.90
2019-04-14T12:39:27.907Z,13.87
2019-04-14T12:42:05.739Z,14.23
2019-04-14T12:44:41.350Z,13.56
2019-04-14T12:47:19.774Z,13.09
2019-04-14T12:49:49.583Z,14.11
2019-04-14T12:52:21.990Z,14.46
2019-04-14T12:54:50.925Z,13.67
2019-04-14T12:57:33.297Z,14.18
2019-04-14T13:00:02.141Z,12.88
2019-04-14T13:02:33.872Z,12.38
2019-04-14T13:05:02.599Z,11.64
2019-04-14T13:07:31.573Z,12.15
2019-04-14T13:10:00.396Z,13.35
2019-04-14T13:12:29.103Z,12.42
2019-04-14T13:14:57.953Z,12.80
2019-04-14T13:17:26.655Z,13.21
2019-04-14T13:19:55.726Z,13.16
2019-04-14T13:22:33.797Z,13.32
2019-04-14T13:24:54.839Z,13.94
2019-04-14T13:27:23.592Z,14.59
2019-04-14T13:29:52.242Z,15.10
2019-04-14T13:32:21.010Z,15.10
2019-04-14T13:34:50.146Z,13.98
2019-04-14T13:37:19.257Z,13.37
2019-04-14T13:39:47.895Z,14.19
2019-04-14T13:42:16.606Z,13.23
2019-04-14T13:44:45.499Z,13.05
2019-04-14T13:47:14.422Z,13.44
2019-04-14T13:49:43.178Z,13.24
2019-04-14T13:52:12.040Z,13.71
2019-04-14T13:54:40.676Z,13.30
2019-04-14T13:57:09.313Z,14.19
2019-04-14T13:59:37.936Z,13.27
2019-04-14T14:02:06.979Z,12.77
2019-04-14T14:04:35.629Z,13.55
2019-04-14T14:07:04.805Z,13.66
2019-04-14T14:09:33.452Z,11.96
2019-04-14T14:12:14.200Z,12.84
2019-04-14T14:15:00.880Z,12.60
2019-04-14T14:17:57.646Z,13.13
2019-04-14T14:20:45.329Z,12.06
2019-04-14T14:23:32.981Z,12.69
2019-04-14T14:26:05.022Z,12.68
2019-04-14T14:28:33.650Z,12.50
2019-04-14T14:31:02.249Z,12.44
2019-04-14T14:33:30.873Z,12.49
2019-04-14T14:35:59.666Z,12.43
2019-04-14T14:38:28.286Z,12.59
2019-04-14T14:40:58.495Z,11.98
2019-04-14T14:43:27.373Z,12.15
2019-04-14T14:46:06.878Z,12.97
2019-04-14T14:48:47.619Z,11.63
2019-04-14T14:51:32.528Z,11.23
2019-04-14T14:54:01.172Z,11.87
2019-04-14T14:56:30.221Z,12.24
2019-04-14T14:58:58.828Z,12.19
2019-04-14T15:01:27.681Z,12.79
2019-04-14T15:03:56.378Z,12.93
2019-04-14T15:06:25.284Z,11.82
2019-04-14T15:08:53.877Z,11.83
2019-04-14T15:11:22.521Z,12.35
2019-04-14T15:13:51.430Z,12.26
2019-04-14T15:16:20.038Z,12.06
2019-04-14T15:18:48.732Z,12.45
2019-04-14T15:21:17.412Z,12.40
2019-04-14T15:23:46.045Z,11.49
2019-04-14T15:26:14.830Z,12.05
2019-04-14T15:28:43.442Z,12.62
2019-04-14T15:31:12.074Z,12.78
2019-04-14T15:33:40.748Z,12.62
2019-04-14T15:36:09.420Z,11.46
2019-04-14T15:38:38.579Z,11.65
2019-04-14T15:41:07.213Z,12.41
2019-04-14T15:43:35.890Z,12.40
2019-04-14T15:46:04.611Z,12.66
2019-04-14T15:48:33.591Z,12.83
2019-04-14T15:51:02.326Z,11.87
2019-04-14T15:53:37.876Z,11.94
2019-04-14T15:56:01.341Z,11.69
2019-04-14T15:58:47.879Z,11.85
2019-04-14T16:01:42.056Z,12.67
2019-04-14T16:04:32.850Z,10.93
2019-04-14T16:07:26.367Z,11.75
2019-04-14T16:10:07.833Z,11.78
2019-04-14T16:12:46.933Z,10.74
2019-04-14T16:15:29.095Z,11.13
2019-04-14T16:18:08.343Z,11.44
2019-04-14T16:20:38.659Z,11.01
2019-04-14T16:23:07.429Z,11.02
2019-04-14T16:25:59.307Z,11.04
2019-04-14T16:28:42.657Z,11.95
2019-04-14T16:31:33.551Z,10.81
2019-04-14T16:34:25.215Z,11.09
2019-04-14T16:36:53.846Z,10.93
2019-04-14T16:39:22.993Z,11.39
2019-04-14T16:41:52.676Z,11.52
2019-04-14T16:44:21.297Z,12.10
2019-04-14T16:46:49.943Z,11.93
2019-04-14T16:49:18.977Z,11.94
2019-04-14T16:51:52.005Z,11.43
2019-04-14T16:54:33.692Z,12.16
2019-04-14T16:57:21.360Z,12.28
2019-04-14T16:59:50.038Z,12.29
2019-04-14T17:02:18.896Z,11.75
2019-04-14T17:04:48.273Z,12.25
2019-04-14T17:07:17.001Z,11.45
2019-04-14T17:09:45.941Z,11.92
2019-04-14T17:12:15.809Z,11.93
2019-04-14T17:14:54.346Z,11.41
2019-04-14T17:17:40.670Z,11.68
2019-04-14T17:20:19.776Z,11.94
2019-04-14T17:22:57.289Z,10.62
2019-04-14T17:25:47.771Z,11.87
2019-04-14T17:28:35.486Z,11.19
2019-04-14T17:31:11.394Z,10.98
2019-04-14T17:33:57.981Z,11.11
2019-04-14T17:36:37.288Z,10.88
2019-04-14T17:39:23.315Z,11.19
2019-04-14T17:42:10.953Z,11.74
2019-04-14T17:44:58.614Z,11.10
2019-04-14T17:47:37.861Z,11.35
2019-04-14T17:50:18.979Z,10.84
2019-04-14T17:52:51.957Z,11.08
2019-04-14T17:55:31.113Z,11.15
2019-04-14T17:58:03.347Z,11.73
2019-04-14T18:00:49.609Z,11.25
2019-04-14T18:03:43.814Z,10.95
2019-04-14T18:06:16.444Z,10.66
2019-04-14T18:08:58.762Z,9.90
2019-04-14T18:11:49.356Z,10.64
2019-04-14T18:14:27.005Z,10.10
2019-04-14T18:17:23.712Z,11.33
2019-04-14T18:19:56.306Z,11.21
2019-04-14T18:22:24.924Z,11.26
2019-04-14T18:24:53.532Z,11.32
2019-04-14T18:27:22.164Z,11.62
2019-04-14T18:30:10.078Z,10.67
2019-04-14T18:32:47.708Z,10.57
2019-04-14T18:35:27.946Z,9.98
2019-04-14T18:38:08.532Z,10.21
2019-04-14T18:40:52.756Z,10.56
2019-04-14T18:43:32.160Z,10.69
2019-04-14T18:46:06.529Z,11.64
2019-04-14T18:48:54.432Z,11.24
2019-04-14T18:51:27.834Z,10.77
2019-04-14T18:54:14.422Z,10.85
2019-04-14T18:56:49.808Z,10.88
2019-04-14T18:59:35.437Z,10.76
2019-04-14T19:02:04.336Z,10.68
2019-04-14T19:04:32.963Z,11.36
2019-04-14T19:07:01.630Z,11.42
2019-04-14T19:09:30.233Z,11.30
2019-04-14T19:12:23.968Z,11.33
2019-04-14T19:14:57.933Z,11.21
2019-04-14T19:17:31.513Z,11.28
2019-04-14T19:20:01.826Z,11.83
2019-04-14T19:22:30.649Z,11.59
2019-04-14T19:25:07.824Z,10.79
2019-04-14T19:27:29.692Z,10.46
2019-04-14T19:29:58.338Z,11.02
2019-04-14T19:32:26.957Z,11.10
2019-04-14T19:34:55.828Z,10.74
2019-04-14T19:37:24.454Z,11.74
2019-04-14T19:39:53.106Z,11.23
2019-04-14T19:42:21.737Z,10.64
2019-04-14T19:44:50.370Z,8.87
2019-04-14T19:47:19.103Z,10.32
2019-04-14T19:49:47.658Z,9.04
2019-04-14T19:52:16.538Z,10.61
2019-04-14T19:54:45.488Z,10.09
2019-04-14T19:57:14.258Z,10.03
2019-04-14T19:59:43.159Z,10.73
2019-04-14T20:02:12.178Z,9.91
2019-04-14T20:04:40.899Z,9.68
2019-04-14T20:07:09.565Z,9.96
2019-04-14T20:09:38.438Z,9.89
2019-04-14T20:12:07.054Z,10.41
2019-04-14T20:14:36.169Z,10.48
2019-04-14T20:17:24.037Z,10.60
2019-04-14T20:20:00.909Z,11.31
2019-04-14T20:23:02.165Z,9.65
2019-04-14T20:25:43.557Z,10.67
2019-04-14T20:28:31.232Z,10.57
2019-04-14T20:31:11.303Z,10.69
2019-04-14T20:33:39.941Z,10.61
2019-04-14T20:36:08.545Z,9.88
2019-04-14T20:38:37.249Z,10.97
2019-04-14T20:41:05.865Z,10.96
2019-04-14T20:43:34.496Z,10.90
2019-04-14T20:46:03.121Z,11.04
2019-04-14T20:48:31.733Z,11.09
2019-04-14T20:51:00.322Z,9.98
2019-04-14T20:53:28.945Z,10.99
2019-04-14T20:55:57.677Z,11.01
2019-04-14T20:58:26.830Z,11.65
2019-04-14T21:00:55.525Z,11.58
2019-04-14T21:03:46.576Z,11.97
2019-04-14T21:06:34.289Z,11.33
2019-04-14T21:09:21.979Z,10.02
2019-04-14T21:11:59.279Z,10.39
2019-04-14T21:14:45.491Z,9.88
2019-04-14T21:17:20.483Z,10.63
2019-04-14T21:19:54.583Z,10.96
2019-04-14T21:22:30.059Z,11.34
2019-04-14T21:25:08.383Z,9.62
2019-04-14T21:27:54.760Z,9.22
2019-04-14T21:30:34.988Z,9.39
2019-04-14T21:33:18.778Z,10.81
2019-04-14T21:36:01.272Z,11.64
2019-04-14T21:38:48.816Z,11.37
2019-04-14T21:41:21.218Z,11.02
2019-04-14T21:43:50.121Z,11.75
2019-04-14T21:46:18.963Z,11.93
2019-04-14T21:48:47.827Z,11.25
2019-04-14T21:51:16.711Z,10.60
2019-04-14T21:53:46.094Z,11.83
2019-04-14T21:56:14.759Z,11.86
2019-04-14T21:59:01.514Z,11.82
2019-04-14T22:01:52.968Z,11.19
2019-04-14T22:04:47.069Z,12.07
2019-04-14T22:07:41.086Z,11.06
2019-04-14T22:10:22.196Z,10.98
2019-04-14T22:12:51.069Z,11.14
2019-04-14T22:15:19.672Z,10.91
2019-04-14T22:17:48.296Z,10.74
2019-04-14T22:20:17.034Z,11.24
2019-04-14T22:22:45.737Z,11.09
2019-04-14T22:25:14.713Z,11.37
2019-04-14T22:27:43.385Z,11.75
2019-04-14T22:30:12.302Z,11.28
2019-04-14T22:32:40.917Z,11.14
2019-04-14T22:35:09.744Z,10.72
2019-04-14T22:37:38.566Z,11.04
2019-04-14T22:40:07.485Z,11.93
2019-04-14T22:42:36.348Z,10.85
2019-04-14T22:45:05.474Z,10.29
2019-04-14T22:47:34.082Z,10.50
2019-04-14T22:50:02.906Z,11.24
2019-04-14T22:52:31.505Z,11.44
2019-04-14T22:55:00.480Z,11.64
2019-04-14T22:57:29.184Z,11.09
2019-04-14T22:59:57.760Z,10.80
2019-04-14T23:02:40.853Z,10.94
2019-04-14T23:05:22.843Z,11.34
2019-04-14T23:08:28.788Z,10.76
2019-04-14T23:11:08.629Z,10.95
2019-04-14T23:13:54.782Z,10.68
2019-04-14T23:16:34.793Z,9.34
2019-04-14T23:19:10.693Z,10.17
2019-04-14T23:21:43.308Z,11.00
2019-04-14T23:24:17.063Z,10.29
2019-04-14T23:26:52.431Z,10.42
2019-04-14T23:29:16.282Z,9.77
2019-04-14T23:31:45.247Z,10.46
2019-04-14T23:34:13.854Z,10.48
2019-04-14T23:36:42.481Z,10.45
2019-04-14T23:39:12.661Z,10.56
2019-04-14T23:41:41.332Z,10.65
2019-04-14T23:44:10.053Z,11.06
2019-04-14T23:46:38.751Z,10.02
2019-04-14T23:49:07.391Z,9.75
2019-04-14T23:51:36.004Z,9.89
2019-04-14T23:54:04.723Z,10.11
2019-04-14T23:56:33.371Z,9.97
2019-04-14T23:59:02.284Z,10.59
